createdAt,value
2022-10-13T00:05:01.887Z,13098
2022-10-13T00:10:13.941Z,13061
2022-10-13T00:15:25.904Z,13040
2022-10-13T00:20:38.056Z,13095
2022-10-13T00:25:49.945Z,12989
2022-10-13T00:31:02.057Z,13149
2022-10-13T00:36:13.969Z,13100
2022-10-13T00:41:25.862Z,12968
2022-10-13T00:46:38.058Z,13127
2022-10-13T00:51:50.010Z,13086
2022-10-13T00:57:02.083Z,13103
2022-10-13T01:02:14.100Z,13037
2022-10-13T01:07:26.061Z,13071
2022-10-13T01:12:38.080Z,12963
2022-10-13T01:17:50.050Z,13113
2022-10-13T01:23:02.039Z,13060
2022-10-13T01:28:14.434Z,13112
2022-10-13T01:33:26.660Z,13062
2022-10-13T01:38:38.660Z,13089
2022-10-13T01:43:50.850Z,13079
2022-10-13T01:49:03.077Z,13088
2022-10-13T01:54:15.130Z,13084
2022-10-13T01:59:27.123Z,13055
2022-10-13T02:04:39.259Z,13096
2022-10-13T02:09:52.871Z,13068
2022-10-13T02:15:05.052Z,13078
2022-10-13T02:20:16.959Z,13095
2022-10-13T02:25:28.848Z,13062
2022-10-13T02:30:41.069Z,13058
2022-10-13T02:35:53.039Z,13070
2022-10-13T02:41:04.939Z,13077
2022-10-13T02:46:16.966Z,12979
2022-10-13T02:51:29.000Z,13105
2022-10-13T02:56:40.898Z,13057
2022-10-13T03:01:52.992Z,12990
2022-10-13T03:07:04.909Z,13092
2022-10-13T03:12:17.482Z,13153
2022-10-13T03:17:30.453Z,13118
2022-10-13T03:22:49.687Z,13054
2022-10-13T03:28:00.649Z,13059
2022-10-13T03:33:12.731Z,13070
2022-10-13T03:38:24.811Z,13042
2022-10-13T03:43:36.687Z,13044
2022-10-13T03:48:48.754Z,13011
2022-10-13T03:54:00.678Z,13019
2022-10-13T03:59:12.518Z,13057
2022-10-13T04:04:24.407Z,13074
2022-10-13T04:09:36.350Z,12999
2022-10-13T04:14:48.230Z,13103
2022-10-13T04:20:00.253Z,13043
2022-10-13T04:25:12.279Z,13055
2022-10-13T04:30:24.190Z,13070
2022-10-13T04:35:36.191Z,13053
2022-10-13T04:40:47.919Z,13061
2022-10-13T04:45:59.929Z,13074
2022-10-13T04:51:11.701Z,13039
2022-10-13T04:56:23.449Z,13047
2022-10-13T05:01:35.298Z,13071
2022-10-13T05:07:19.222Z,13032
2022-10-13T05:12:27.393Z,13067
2022-10-13T05:17:38.831Z,13065
2022-10-13T05:22:50.612Z,13085
2022-10-13T05:28:02.503Z,13071
2022-10-13T05:33:14.413Z,13093
2022-10-13T05:38:26.566Z,13077
2022-10-13T05:43:38.293Z,13097
2022-10-13T05:48:49.964Z,13043
2022-10-13T05:54:01.720Z,13013
2022-10-13T05:59:13.574Z,13089
2022-10-13T06:04:25.665Z,13140
2022-10-13T06:09:48.037Z,13077
2022-10-13T06:14:59.863Z,13132
2022-10-13T06:20:11.581Z,13155
2022-10-13T06:25:23.491Z,13062
2022-10-13T06:30:35.367Z,13177
2022-10-13T06:35:47.734Z,13143
2022-10-13T06:40:59.539Z,13155
2022-10-13T06:46:11.450Z,13137
2022-10-13T06:51:23.690Z,13151
2022-10-13T06:56:35.653Z,13174
2022-10-13T07:01:47.580Z,13167
2022-10-13T07:06:59.482Z,13159
2022-10-13T07:12:11.334Z,13122
2022-10-13T07:17:23.682Z,13056
2022-10-13T07:22:35.251Z,13190
2022-10-13T07:27:47.550Z,13159
2022-10-13T07:32:59.341Z,13242
2022-10-13T07:38:11.341Z,13213
2022-10-13T07:43:23.509Z,13148
2022-10-13T07:48:35.519Z,13146
2022-10-13T07:53:47.510Z,13018
2022-10-13T07:58:59.644Z,13197
2022-10-13T08:04:11.750Z,13133
2022-10-13T08:09:23.920Z,13212
2022-10-13T08:14:36.480Z,13184
2022-10-13T08:19:48.569Z,13043
2022-10-13T08:25:00.792Z,13167
2022-10-13T08:30:13.260Z,13174
2022-10-13T08:35:25.543Z,13171
2022-10-13T08:40:37.653Z,13099
2022-10-13T08:45:49.779Z,13070
2022-10-13T08:51:02.043Z,13143
2022-10-13T08:56:14.243Z,13144
2022-10-13T09:01:26.617Z,12990
2022-10-13T09:06:38.883Z,13183
2022-10-13T09:11:51.060Z,13179
2022-10-13T09:17:03.466Z,13169
2022-10-13T09:22:15.783Z,13159
2022-10-13T09:27:28.372Z,13112
2022-10-13T09:32:40.575Z,13135
2022-10-13T09:37:52.783Z,13170
2022-10-13T09:43:05.134Z,13155
2022-10-13T09:48:17.476Z,13133
2022-10-13T09:53:29.870Z,13103
2022-10-13T09:58:42.096Z,13205
2022-10-13T10:03:54.682Z,13191
2022-10-13T10:09:07.429Z,13190
2022-10-13T10:14:19.546Z,13162
2022-10-13T10:19:31.652Z,13219
2022-10-13T10:24:44.028Z,13254
2022-10-13T10:29:56.438Z,13237
2022-10-13T10:35:09.331Z,13093
2022-10-13T10:40:21.467Z,13135
2022-10-13T10:45:33.849Z,13190
2022-10-13T10:50:46.333Z,13122
2022-10-13T10:55:58.546Z,13208
2022-10-13T11:01:11.004Z,13137
2022-10-13T11:06:23.643Z,13302
2022-10-13T11:11:38.305Z,14570
2022-10-13T11:16:53.195Z,14333
2022-10-13T11:22:07.646Z,13622
2022-10-13T11:27:24.086Z,13554
2022-10-13T11:32:37.714Z,13454
2022-10-13T11:43:08.193Z,13309
2022-10-13T11:48:24.880Z,13203
2022-10-13T11:53:37.825Z,13692
2022-10-13T11:58:50.168Z,13243
2022-10-13T12:19:35.041Z,12990
2022-10-13T12:29:58.396Z,13070
2022-10-13T12:35:11.296Z,12954
2022-10-13T12:50:44.116Z,13189
2022-10-13T12:55:58.181Z,13015
2022-10-13T13:21:50.445Z,12919
2022-10-13T13:27:02.881Z,13555
2022-10-13T13:32:15.438Z,13001
2022-10-13T13:42:40.054Z,12940
2022-10-13T14:18:54.450Z,12995
2022-10-13T14:24:06.533Z,12923
2022-10-13T14:29:18.669Z,13066
2022-10-13T14:34:30.817Z,13052
2022-10-13T14:39:43.043Z,13003
2022-10-13T14:44:55.221Z,12907
2022-10-13T14:50:07.496Z,13037
2022-10-13T15:00:30.086Z,12931
2022-10-13T15:05:42.109Z,12896
2022-10-13T15:16:03.945Z,13014
2022-10-13T15:21:16.081Z,12996
2022-10-13T15:52:18.830Z,12890
2022-10-13T16:08:05.400Z,12950
2022-10-13T16:13:17.342Z,12929
2022-10-13T16:28:49.509Z,12990
2022-10-13T16:34:01.657Z,12985
2022-10-13T16:39:13.848Z,12955
2022-10-13T16:49:35.936Z,12994
2022-10-13T16:54:48.236Z,13000
2022-10-13T17:00:00.235Z,12897
2022-10-13T17:05:12.356Z,12939
2022-10-13T17:10:24.367Z,13057
2022-10-13T17:15:36.756Z,12919
2022-10-13T17:20:48.919Z,12994
2022-10-13T17:26:00.975Z,12936
2022-10-13T17:31:13.326Z,13085
2022-10-13T17:36:25.517Z,13068
2022-10-13T17:41:37.738Z,13105
2022-10-13T17:46:50.052Z,13053
2022-10-13T17:52:02.300Z,12934
2022-10-13T17:57:14.709Z,13064
2022-10-13T18:02:26.753Z,13052
2022-10-13T18:07:39.003Z,13022
2022-10-13T18:12:51.415Z,13037
2022-10-13T18:18:03.441Z,13010
2022-10-13T18:23:20.549Z,13019
2022-10-13T18:28:33.119Z,12995
2022-10-13T18:33:45.337Z,13007
2022-10-13T18:38:57.351Z,13019
2022-10-13T18:44:09.518Z,13002
2022-10-13T18:54:44.648Z,13064
2022-10-13T18:59:56.564Z,13038
2022-10-13T19:05:08.641Z,13007
2022-10-13T19:10:20.757Z,13054
2022-10-13T19:15:32.826Z,13037
2022-10-13T19:20:50.565Z,13031
2022-10-13T19:26:14.011Z,12935
2022-10-13T19:31:25.095Z,13077
2022-10-13T19:36:37.174Z,13059
2022-10-13T19:41:49.345Z,13047
2022-10-13T19:47:01.309Z,13072
2022-10-13T19:52:13.163Z,13051
2022-10-13T19:57:25.480Z,13047
2022-10-13T20:02:37.667Z,13033
2022-10-13T20:07:49.938Z,13031
2022-10-13T20:13:02.077Z,13035
2022-10-13T20:18:14.319Z,13050
2022-10-13T20:23:26.484Z,13038
2022-10-13T20:28:43.516Z,13106
2022-10-13T20:33:59.749Z,13050
2022-10-13T20:39:11.719Z,13027
2022-10-13T20:44:24.223Z,13009
2022-10-13T20:49:36.647Z,13041
2022-10-13T20:54:48.558Z,13017
2022-10-13T21:00:00.544Z,13000
2022-10-13T21:05:12.656Z,13019
2022-10-13T21:10:24.615Z,13043
2022-10-13T21:15:36.642Z,13047
2022-10-13T21:20:48.517Z,13035
2022-10-13T21:26:00.507Z,13063
2022-10-13T21:31:12.156Z,13063
2022-10-13T21:36:24.199Z,13044
2022-10-13T21:41:35.958Z,13044
2022-10-13T21:46:47.779Z,13043
2022-10-13T21:51:59.769Z,13052
2022-10-13T22:02:41.509Z,13034
2022-10-13T22:07:53.209Z,13028
2022-10-13T22:13:04.842Z,13067
2022-10-13T22:18:16.754Z,13004
2022-10-13T22:23:28.588Z,13015
2022-10-13T22:28:41.603Z,13082
2022-10-13T22:33:53.347Z,13039
2022-10-13T22:39:05.373Z,13055
2022-10-13T22:44:17.312Z,13080
2022-10-13T22:49:29.122Z,13067
2022-10-13T22:54:41.115Z,13062
2022-10-13T22:59:52.965Z,13049
2022-10-13T23:05:05.127Z,13018
2022-10-13T23:10:16.963Z,13044
2022-10-13T23:15:28.753Z,13060
2022-10-13T23:20:40.674Z,13049
2022-10-13T23:25:52.353Z,13070
2022-10-13T23:31:04.202Z,12977
2022-10-13T23:36:16.174Z,13109
2022-10-13T23:41:27.996Z,13089
2022-10-13T23:46:39.774Z,12976
2022-10-13T23:51:51.574Z,13139
2022-10-13T23:57:03.508Z,13075
